PWSweather.com
Personal Weather Stations
Station Observations
KMIEASTT1
Tawas Bay, East Tawas, MI 48730

Tawas BayEast Tawas, MI 48730

Lat: 44.28, Lon: -83.48

Elevation: 600

Station Type: Davis VantagePro

http://www.tawasbayweather.com

High Low Average
Temperature 29.7°F-1.3°F 17.8°F-7.9°F 23.8°F-4.6°F
Dew Point 25.1°F-3.8°F 12.3°F-10.9°F 19.5°F-6.9°F
Winds 20.0 mph NW32.2 mph NW Calm Calm 8.1 mph 13.0 mph
Wind Gusts 27.0 mph43.5 mph -- 11.3 mph18.2 mph
Humidity 94% 66% 84%
Pressure 30.27 in1025.10 in 29.98 in1015.20 in -
Precipitation 0.00 in0.00 in - -
Hour Temp Dew Point Humidity Winds Wind Gusts Pressure Precip Precip Rate Daily Precip Total
12:00 AM 20.6°F-6.3°C 13.3°F-10.4°C 73% 1.0 mph WSW1.6 kmh WSW 3.0 mph4.8 kmh 30.27 in1025.1 mb 0.00 in0.0 mm 0.00 in0.0 mm 0.00 in0.0 mm
12:15 AM 20.6°F-6.3°C 13.3°F-10.4°C 73% 2.0 mph WSW3.2 kmh WSW 3.0 mph4.8 kmh 30.26 in1024.7 mb 0.00 in0.0 mm 0.00 in0.0 mm 0.00 in0.0 mm
12:30 AM 20.7°F-6.3°C 13.1°F-10.5°C 72% 1.0 mph W1.6 kmh W 4.0 mph6.4 kmh 30.26 in1024.7 mb 0.00 in0.0 mm 0.00 in0.0 mm 0.00 in0.0 mm
12:45 AM 20.2°F-6.6°C 12.3°F-10.9°C 71% 1.0 mph WSW1.6 kmh WSW 3.0 mph4.8 kmh 30.26 in1024.7 mb 0.00 in0.0 mm 0.00 in0.0 mm 0.00 in0.0 mm
01:00 AM 19.1°F-7.2°C 12.5°F-10.8°C 75% 1.0 mph WSW1.6 kmh WSW 2.0 mph3.2 kmh 30.26 in1024.7 mb 0.00 in0.0 mm 0.00 in0.0 mm 0.00 in0.0 mm
01:15 AM 18.6°F-7.4°C 12.9°F-10.6°C 78% Calm Calm 2.0 mph3.2 kmh 30.26 in1024.7 mb 0.00 in0.0 mm 0.00 in0.0 mm 0.00 in0.0 mm
01:30 AM 18.5°F-7.5°C 13.4°F-10.3°C 80% 2.0 mph SW3.2 kmh SW 2.0 mph3.2 kmh 30.26 in1024.7 mb 0.00 in0.0 mm 0.00 in0.0 mm 0.00 in0.0 mm
01:45 AM 19.4°F-7.0°C 14.0°F-10.0°C 79% Calm Calm -- 30.25 in1024.4 mb 0.00 in0.0 mm 0.00 in0.0 mm 0.00 in0.0 mm
02:00 AM 19.1°F-7.2°C 13.7°F-10.2°C 79% Calm Calm -- 30.25 in1024.4 mb 0.00 in0.0 mm 0.00 in0.0 mm 0.00 in0.0 mm
02:15 AM 18.5°F-7.5°C 13.7°F-10.2°C 81% 2.0 mph S3.2 kmh S 2.0 mph3.2 kmh 30.25 in1024.4 mb 0.00 in0.0 mm 0.00 in0.0 mm 0.00 in0.0 mm
02:30 AM 17.8°F-7.9°C 13.3°F-10.4°C 82% 5.0 mph SSW8.0 kmh SSW 6.0 mph9.7 kmh 30.25 in1024.4 mb 0.00 in0.0 mm 0.00 in0.0 mm 0.00 in0.0 mm
02:45 AM 19.1°F-7.2°C 14.2°F-9.9°C 81% 7.0 mph SW11.3 kmh SW 9.0 mph14.5 kmh 30.25 in1024.4 mb 0.00 in0.0 mm 0.00 in0.0 mm 0.00 in0.0 mm
03:00 AM 19.1°F-7.2°C 14.5°F-9.7°C 82% 6.0 mph SW9.7 kmh SW 8.0 mph12.9 kmh 30.24 in1024.0 mb 0.00 in0.0 mm 0.00 in0.0 mm 0.00 in0.0 mm
03:15 AM 19.0°F-7.2°C 14.4°F-9.8°C 82% 7.0 mph SSW11.3 kmh SSW 8.0 mph12.9 kmh 30.23 in1023.7 mb 0.00 in0.0 mm 0.00 in0.0 mm 0.00 in0.0 mm
03:30 AM 19.4°F-7.0°C 14.8°F-9.6°C 82% 6.0 mph SW9.7 kmh SW 9.0 mph14.5 kmh 30.23 in1023.7 mb 0.00 in0.0 mm 0.00 in0.0 mm 0.00 in0.0 mm
03:45 AM 19.5°F-6.9°C 14.6°F-9.7°C 81% 8.0 mph SW12.9 kmh SW 10.0 mph16.1 kmh 30.23 in1023.7 mb 0.00 in0.0 mm 0.00 in0.0 mm 0.00 in0.0 mm
04:00 AM 19.1°F-7.2°C 14.5°F-9.7°C 82% 8.0 mph SW12.9 kmh SW 9.0 mph14.5 kmh 30.23 in1023.7 mb 0.00 in0.0 mm 0.00 in0.0 mm 0.00 in0.0 mm
04:15 AM 18.9°F-7.3°C 14.0°F-10.0°C 81% 6.0 mph SW9.7 kmh SW 8.0 mph12.9 kmh 30.24 in1024.0 mb 0.00 in0.0 mm 0.00 in0.0 mm 0.00 in0.0 mm
04:30 AM 18.9°F-7.3°C 13.8°F-10.1°C 80% 8.0 mph WSW12.9 kmh WSW 9.0 mph14.5 kmh 30.24 in1024.0 mb 0.00 in0.0 mm 0.00 in0.0 mm 0.00 in0.0 mm
04:45 AM 18.5°F-7.5°C 13.7°F-10.2°C 81% 4.0 mph SW6.4 kmh SW 7.0 mph11.3 kmh 30.24 in1024.0 mb 0.00 in0.0 mm 0.00 in0.0 mm 0.00 in0.0 mm
05:00 AM 18.9°F-7.3°C 14.3°F-9.8°C 82% 6.0 mph SW9.7 kmh SW 9.0 mph14.5 kmh 30.23 in1023.7 mb 0.00 in0.0 mm 0.00 in0.0 mm 0.00 in0.0 mm
05:15 AM 18.4°F-7.6°C 14.4°F-9.8°C 84% 5.0 mph SW8.0 kmh SW 7.0 mph11.3 kmh 30.23 in1023.7 mb 0.00 in0.0 mm 0.00 in0.0 mm 0.00 in0.0 mm
05:30 AM 18.8°F-7.3°C 15.1°F-9.4°C 85% 6.0 mph SW9.7 kmh SW 10.0 mph16.1 kmh 30.22 in1023.4 mb 0.00 in0.0 mm 0.00 in0.0 mm 0.00 in0.0 mm
05:45 AM 19.1°F-7.2°C 15.3°F-9.3°C 85% 8.0 mph SW12.9 kmh SW 10.0 mph16.1 kmh 30.20 in1022.7 mb 0.00 in0.0 mm 0.00 in0.0 mm 0.00 in0.0 mm
06:00 AM 19.1°F-7.2°C 15.3°F-9.3°C 85% 6.0 mph SW9.7 kmh SW 10.0 mph16.1 kmh 30.19 in1022.4 mb 0.00 in0.0 mm 0.00 in0.0 mm 0.00 in0.0 mm
06:15 AM 19.0°F-7.2°C 15.5°F-9.2°C 86% 5.0 mph SW8.0 kmh SW 9.0 mph14.5 kmh 30.18 in1022.0 mb 0.00 in0.0 mm 0.00 in0.0 mm 0.00 in0.0 mm
06:30 AM 19.3°F-7.1°C 15.8°F-9.0°C 86% 7.0 mph SW11.3 kmh SW 11.0 mph17.7 kmh 30.17 in1021.7 mb 0.00 in0.0 mm 0.00 in0.0 mm 0.00 in0.0 mm
06:45 AM 19.2°F-7.1°C 15.7°F-9.1°C 86% 8.0 mph SW12.9 kmh SW 11.0 mph17.7 kmh 30.17 in1021.7 mb 0.00 in0.0 mm 0.00 in0.0 mm 0.00 in0.0 mm
07:00 AM 19.4°F-7.0°C 16.2°F-8.8°C 87% 8.0 mph SW12.9 kmh SW 10.0 mph16.1 kmh 30.17 in1021.7 mb 0.00 in0.0 mm 0.00 in0.0 mm 0.00 in0.0 mm
07:15 AM 20.0°F-6.7°C 17.0°F-8.3°C 88% 11.0 mph SW17.7 kmh SW 14.0 mph22.5 kmh 30.17 in1021.7 mb 0.00 in0.0 mm 0.00 in0.0 mm 0.00 in0.0 mm
07:30 AM 20.3°F-6.5°C 17.1°F-8.3°C 87% 7.0 mph SW11.3 kmh SW 13.0 mph20.9 kmh 30.17 in1021.7 mb 0.00 in0.0 mm 0.00 in0.0 mm 0.00 in0.0 mm
07:45 AM 20.5°F-6.4°C 17.3°F-8.2°C 87% 10.0 mph SW16.1 kmh SW 11.0 mph17.7 kmh 30.17 in1021.7 mb 0.00 in0.0 mm 0.00 in0.0 mm 0.00 in0.0 mm
08:00 AM 20.8°F-6.2°C 17.6°F-8.0°C 87% 10.0 mph SW16.1 kmh SW 14.0 mph22.5 kmh 30.17 in1021.7 mb 0.00 in0.0 mm 0.00 in0.0 mm 0.00 in0.0 mm
08:15 AM 20.7°F-6.3°C 17.5°F-8.1°C 87% 8.0 mph WSW12.9 kmh WSW 11.0 mph17.7 kmh 30.18 in1022.0 mb 0.00 in0.0 mm 0.00 in0.0 mm 0.00 in0.0 mm
08:30 AM 20.7°F-6.3°C 17.5°F-8.1°C 87% 8.0 mph SW12.9 kmh SW 13.0 mph20.9 kmh 30.18 in1022.0 mb 0.00 in0.0 mm 0.00 in0.0 mm 0.00 in0.0 mm
08:45 AM 21.2°F-6.0°C 17.9°F-7.8°C 87% 8.0 mph SW12.9 kmh SW 12.0 mph19.3 kmh 30.18 in1022.0 mb 0.00 in0.0 mm 0.00 in0.0 mm 0.00 in0.0 mm
09:00 AM 21.9°F-5.6°C 18.6°F-7.4°C 87% 9.0 mph SW14.5 kmh SW 13.0 mph20.9 kmh 30.17 in1021.7 mb 0.00 in0.0 mm 0.00 in0.0 mm 0.00 in0.0 mm
09:15 AM 22.2°F-5.4°C 18.7°F-7.4°C 86% 11.0 mph SW17.7 kmh SW 12.0 mph19.3 kmh 30.17 in1021.7 mb 0.00 in0.0 mm 0.00 in0.0 mm 0.00 in0.0 mm
09:30 AM 22.6°F-5.2°C 18.8°F-7.3°C 85% 9.0 mph SW14.5 kmh SW 13.0 mph20.9 kmh 30.16 in1021.3 mb 0.00 in0.0 mm 0.00 in0.0 mm 0.00 in0.0 mm
09:45 AM 22.9°F-5.1°C 19.1°F-7.2°C 85% 9.0 mph SW14.5 kmh SW 12.0 mph19.3 kmh 30.15 in1021.0 mb 0.00 in0.0 mm 0.00 in0.0 mm 0.00 in0.0 mm
10:00 AM 23.5°F-4.7°C 19.4°F-7.0°C 84% 10.0 mph SSW16.1 kmh SSW 15.0 mph24.1 kmh 30.14 in1020.7 mb 0.00 in0.0 mm 0.00 in0.0 mm 0.00 in0.0 mm
10:15 AM 23.6°F-4.7°C 19.8°F-6.8°C 85% 11.0 mph SW17.7 kmh SW 13.0 mph20.9 kmh 30.14 in1020.7 mb 0.00 in0.0 mm 0.00 in0.0 mm 0.00 in0.0 mm
10:30 AM 23.8°F-4.6°C 19.7°F-6.8°C 84% 8.0 mph SW12.9 kmh SW 12.0 mph19.3 kmh 30.13 in1020.3 mb 0.00 in0.0 mm 0.00 in0.0 mm 0.00 in0.0 mm
10:45 AM 24.0°F-4.4°C 20.2°F-6.6°C 85% 8.0 mph SSW12.9 kmh SSW 10.0 mph16.1 kmh 30.13 in1020.3 mb 0.00 in0.0 mm 0.00 in0.0 mm 0.00 in0.0 mm
11:00 AM 24.4°F-4.2°C 20.6°F-6.3°C 85% 12.0 mph SW19.3 kmh SW 13.0 mph20.9 kmh 30.12 in1020.0 mb 0.00 in0.0 mm 0.00 in0.0 mm 0.00 in0.0 mm
11:15 AM 24.6°F-4.1°C 20.7°F-6.3°C 85% 12.0 mph SW19.3 kmh SW 14.0 mph22.5 kmh 30.12 in1020.0 mb 0.00 in0.0 mm 0.00 in0.0 mm 0.00 in0.0 mm
11:30 AM 24.8°F-4.0°C 20.9°F-6.2°C 85% 11.0 mph SW17.7 kmh SW 12.0 mph19.3 kmh 30.11 in1019.6 mb 0.00 in0.0 mm 0.00 in0.0 mm 0.00 in0.0 mm
11:45 AM 24.9°F-3.9°C 21.0°F-6.1°C 85% 7.0 mph SSW11.3 kmh SSW 13.0 mph20.9 kmh 30.10 in1019.3 mb 0.00 in0.0 mm 0.00 in0.0 mm 0.00 in0.0 mm
12:00 PM 25.1°F-3.8°C 21.5°F-5.8°C 86% 10.0 mph SW16.1 kmh SW 11.0 mph17.7 kmh 30.09 in1019.0 mb 0.00 in0.0 mm 0.00 in0.0 mm 0.00 in0.0 mm
12:15 PM 25.3°F-3.7°C 21.4°F-5.9°C 85% 7.0 mph SSW11.3 kmh SSW 12.0 mph19.3 kmh 30.08 in1018.6 mb 0.00 in0.0 mm 0.00 in0.0 mm 0.00 in0.0 mm
12:30 PM 25.4°F-3.7°C 21.8°F-5.7°C 86% 9.0 mph SW14.5 kmh SW 12.0 mph19.3 kmh 30.08 in1018.6 mb 0.00 in0.0 mm 0.00 in0.0 mm 0.00 in0.0 mm
12:45 PM 25.9°F-3.4°C 22.0°F-5.6°C 85% 7.0 mph SSW11.3 kmh SSW 11.0 mph17.7 kmh 30.07 in1018.3 mb 0.00 in0.0 mm 0.00 in0.0 mm 0.00 in0.0 mm
01:00 PM 26.3°F-3.2°C 22.4°F-5.3°C 85% 7.0 mph SSW11.3 kmh SSW 10.0 mph16.1 kmh 30.06 in1017.9 mb 0.00 in0.0 mm 0.00 in0.0 mm 0.00 in0.0 mm
01:15 PM 26.6°F-3.0°C 22.7°F-5.2°C 85% 7.0 mph S11.3 kmh S 11.0 mph17.7 kmh 30.05 in1017.6 mb 0.00 in0.0 mm 0.00 in0.0 mm 0.00 in0.0 mm
01:30 PM 26.8°F-2.9°C 22.9°F-5.1°C 85% 9.0 mph S14.5 kmh S 12.0 mph19.3 kmh 30.04 in1017.3 mb 0.00 in0.0 mm 0.00 in0.0 mm 0.00 in0.0 mm
01:45 PM 27.1°F-2.7°C 22.9°F-5.1°C 84% 10.0 mph SSW16.1 kmh SSW 14.0 mph22.5 kmh 30.02 in1016.6 mb 0.00 in0.0 mm 0.00 in0.0 mm 0.00 in0.0 mm
02:00 PM 27.2°F-2.7°C 22.7°F-5.2°C 83% 12.0 mph S19.3 kmh S 15.0 mph24.1 kmh 30.01 in1016.3 mb 0.00 in0.0 mm 0.00 in0.0 mm 0.00 in0.0 mm
02:15 PM 27.1°F-2.7°C 22.9°F-5.1°C 84% 14.0 mph S22.5 kmh S 16.0 mph25.7 kmh 30.01 in1016.3 mb 0.00 in0.0 mm 0.00 in0.0 mm 0.00 in0.0 mm
02:30 PM 27.6°F-2.4°C 23.1°F-4.9°C 83% 9.0 mph S14.5 kmh S 16.0 mph25.7 kmh 30.00 in1015.9 mb 0.00 in0.0 mm 0.00 in0.0 mm 0.00 in0.0 mm
02:45 PM 27.4°F-2.6°C 22.6°F-5.2°C 82% 13.0 mph S20.9 kmh S 15.0 mph24.1 kmh 29.99 in1015.6 mb 0.00 in0.0 mm 0.00 in0.0 mm 0.00 in0.0 mm
03:00 PM 27.4°F-2.6°C 22.4°F-5.3°C 81% 11.0 mph S17.7 kmh S 15.0 mph24.1 kmh 29.99 in1015.6 mb 0.00 in0.0 mm 0.00 in0.0 mm 0.00 in0.0 mm
03:15 PM 28.9°F-1.7°C 20.7°F-6.3°C 71% 20.0 mph NW32.2 kmh NW 25.0 mph40.2 kmh 29.98 in1015.2 mb 0.00 in0.0 mm 0.00 in0.0 mm 0.00 in0.0 mm
03:30 PM 29.2°F-1.6°C 20.7°F-6.3°C 70% 14.0 mph NW22.5 kmh NW 25.0 mph40.2 kmh 29.98 in1015.2 mb 0.00 in0.0 mm 0.00 in0.0 mm 0.00 in0.0 mm
03:45 PM 29.4°F-1.4°C 19.5°F-6.9°C 66% 16.0 mph NW25.7 kmh NW 27.0 mph43.5 kmh 29.99 in1015.6 mb 0.00 in0.0 mm 0.00 in0.0 mm 0.00 in0.0 mm
04:00 PM 29.7°F-1.3°C 19.8°F-6.8°C 66% 12.0 mph N19.3 kmh N 22.0 mph35.4 kmh 29.99 in1015.6 mb 0.00 in0.0 mm 0.00 in0.0 mm 0.00 in0.0 mm
04:15 PM 27.6°F-2.4°C 21.0°F-6.1°C 76% 7.0 mph SSW11.3 kmh SSW 9.0 mph14.5 kmh 29.98 in1015.2 mb 0.00 in0.0 mm 0.00 in0.0 mm 0.00 in0.0 mm
04:30 PM 27.8°F-2.3°C 21.9°F-5.6°C 78% 7.0 mph SW11.3 kmh SW 8.0 mph12.9 kmh 29.98 in1015.2 mb 0.00 in0.0 mm 0.00 in0.0 mm 0.00 in0.0 mm
04:45 PM 28.0°F-2.2°C 22.0°F-5.6°C 78% 7.0 mph SW11.3 kmh SW 8.0 mph12.9 kmh 29.99 in1015.6 mb 0.00 in0.0 mm 0.00 in0.0 mm 0.00 in0.0 mm
05:00 PM 28.5°F-1.9°C 21.6°F-5.8°C 75% 5.0 mph SW8.0 kmh SW 11.0 mph17.7 kmh 29.99 in1015.6 mb 0.00 in0.0 mm 0.00 in0.0 mm 0.00 in0.0 mm
05:15 PM 28.5°F-1.9°C 22.8°F-5.1°C 79% 8.0 mph WSW12.9 kmh WSW 15.0 mph24.1 kmh 29.99 in1015.6 mb 0.00 in0.0 mm 0.00 in0.0 mm 0.00 in0.0 mm
05:30 PM 28.1°F-2.2°C 23.0°F-5.0°C 81% 10.0 mph SW16.1 kmh SW 16.0 mph25.7 kmh 29.99 in1015.6 mb 0.00 in0.0 mm 0.00 in0.0 mm 0.00 in0.0 mm
05:45 PM 28.1°F-2.2°C 23.3°F-4.8°C 82% 10.0 mph SW16.1 kmh SW 12.0 mph19.3 kmh 29.98 in1015.2 mb 0.00 in0.0 mm 0.00 in0.0 mm 0.00 in0.0 mm
06:00 PM 27.9°F-2.3°C 23.4°F-4.8°C 83% 8.0 mph SW12.9 kmh SW 13.0 mph20.9 kmh 29.98 in1015.2 mb 0.00 in0.0 mm 0.00 in0.0 mm 0.00 in0.0 mm
06:15 PM 28.1°F-2.2°C 23.0°F-5.0°C 81% 7.0 mph SW11.3 kmh SW 13.0 mph20.9 kmh 29.98 in1015.2 mb 0.00 in0.0 mm 0.00 in0.0 mm 0.00 in0.0 mm
06:30 PM 28.3°F-2.1°C 22.6°F-5.2°C 79% 11.0 mph SW17.7 kmh SW 12.0 mph19.3 kmh 29.98 in1015.2 mb 0.00 in0.0 mm 0.00 in0.0 mm 0.00 in0.0 mm
06:45 PM 27.9°F-2.3°C 22.2°F-5.4°C 79% 10.0 mph WSW16.1 kmh WSW 15.0 mph24.1 kmh 29.98 in1015.2 mb 0.00 in0.0 mm 0.00 in0.0 mm 0.00 in0.0 mm
07:00 PM 27.6°F-2.4°C 22.8°F-5.1°C 82% 9.0 mph SW14.5 kmh SW 10.0 mph16.1 kmh 29.99 in1015.6 mb 0.00 in0.0 mm 0.00 in0.0 mm 0.00 in0.0 mm
07:15 PM 27.5°F-2.5°C 22.7°F-5.2°C 82% 8.0 mph SW12.9 kmh SW 13.0 mph20.9 kmh 30.00 in1015.9 mb 0.00 in0.0 mm 0.00 in0.0 mm 0.00 in0.0 mm
07:30 PM 27.5°F-2.5°C 22.7°F-5.2°C 82% 8.0 mph SW12.9 kmh SW 10.0 mph16.1 kmh 30.00 in1015.9 mb 0.00 in0.0 mm 0.00 in0.0 mm 0.00 in0.0 mm
07:45 PM 27.1°F-2.7°C 22.4°F-5.3°C 82% 14.0 mph SW22.5 kmh SW 18.0 mph29.0 kmh 30.00 in1015.9 mb 0.00 in0.0 mm 0.00 in0.0 mm 0.00 in0.0 mm
08:00 PM 25.8°F-3.4°C 23.5°F-4.7°C 91% 11.0 mph SW17.7 kmh SW 16.0 mph25.7 kmh 30.01 in1016.3 mb 0.00 in0.0 mm 0.00 in0.0 mm 0.00 in0.0 mm
08:15 PM 25.5°F-3.6°C 23.8°F-4.6°C 93% 10.0 mph SW16.1 kmh SW 14.0 mph22.5 kmh 30.00 in1015.9 mb 0.00 in0.0 mm 0.00 in0.0 mm 0.00 in0.0 mm
08:30 PM 25.5°F-3.6°C 24.0°F-4.4°C 94% 11.0 mph SW17.7 kmh SW 13.0 mph20.9 kmh 30.01 in1016.3 mb 0.00 in0.0 mm 0.00 in0.0 mm 0.00 in0.0 mm
08:45 PM 25.5°F-3.6°C 24.0°F-4.4°C 94% 9.0 mph SW14.5 kmh SW 12.0 mph19.3 kmh 30.01 in1016.3 mb 0.00 in0.0 mm 0.00 in0.0 mm 0.00 in0.0 mm
09:00 PM 25.6°F-3.6°C 24.1°F-4.4°C 94% 11.0 mph SW17.7 kmh SW 12.0 mph19.3 kmh 30.01 in1016.3 mb 0.00 in0.0 mm 0.00 in0.0 mm 0.00 in0.0 mm
09:15 PM 25.7°F-3.5°C 24.2°F-4.3°C 94% 9.0 mph WSW14.5 kmh WSW 12.0 mph19.3 kmh 30.01 in1016.3 mb 0.00 in0.0 mm 0.00 in0.0 mm 0.00 in0.0 mm
09:30 PM 25.7°F-3.5°C 24.0°F-4.4°C 93% 7.0 mph SW11.3 kmh SW 11.0 mph17.7 kmh 30.01 in1016.3 mb 0.00 in0.0 mm 0.00 in0.0 mm 0.00 in0.0 mm
09:45 PM 25.8°F-3.4°C 24.1°F-4.4°C 93% 9.0 mph SW14.5 kmh SW 13.0 mph20.9 kmh 30.01 in1016.3 mb 0.00 in0.0 mm 0.00 in0.0 mm 0.00 in0.0 mm
10:00 PM 26.0°F-3.3°C 24.3°F-4.3°C 93% 11.0 mph SW17.7 kmh SW 12.0 mph19.3 kmh 30.01 in1016.3 mb 0.00 in0.0 mm 0.00 in0.0 mm 0.00 in0.0 mm
10:15 PM 26.1°F-3.3°C 24.4°F-4.2°C 93% 11.0 mph SW17.7 kmh SW 11.0 mph17.7 kmh 30.01 in1016.3 mb 0.00 in0.0 mm 0.00 in0.0 mm 0.00 in0.0 mm
10:30 PM 26.3°F-3.2°C 24.6°F-4.1°C 93% 10.0 mph SW16.1 kmh SW 14.0 mph22.5 kmh 30.01 in1016.3 mb 0.00 in0.0 mm 0.00 in0.0 mm 0.00 in0.0 mm
10:45 PM 26.3°F-3.2°C 24.3°F-4.3°C 92% 8.0 mph SW12.9 kmh SW 12.0 mph19.3 kmh 30.01 in1016.3 mb 0.00 in0.0 mm 0.00 in0.0 mm 0.00 in0.0 mm
11:00 PM 26.6°F-3.0°C 24.6°F-4.1°C 92% 10.0 mph WSW16.1 kmh WSW 10.0 mph16.1 kmh 30.01 in1016.3 mb 0.00 in0.0 mm 0.00 in0.0 mm 0.00 in0.0 mm
11:15 PM 27.0°F-2.8°C 24.7°F-4.1°C 91% 6.0 mph SW9.7 kmh SW 11.0 mph17.7 kmh 30.02 in1016.6 mb 0.00 in0.0 mm 0.00 in0.0 mm 0.00 in0.0 mm
11:30 PM 27.3°F-2.6°C 25.0°F-3.9°C 91% 8.0 mph WSW12.9 kmh WSW 13.0 mph20.9 kmh 30.03 in1016.9 mb 0.00 in0.0 mm 0.00 in0.0 mm 0.00 in0.0 mm
11:45 PM 27.6°F-2.4°C 25.1°F-3.8°C 90% 6.0 mph WSW9.7 kmh WSW 12.0 mph19.3 kmh 30.02 in1016.6 mb 0.00 in0.0 mm 0.00 in0.0 mm 0.00 in0.0 mm